Time;durP1;ratioP1;P1;durP2;ratioP2;P2;SDS_P1;SDS_P2;PMS_P1;PMS_P2;Temp;Humidity;BMP_temperature;BMP_pressure;BME280_temperature;BME280_humidity;BME280_pressure;Samples;Min_cycle;Max_cycle;Signal;HPM_P1;HPM_P2
2023/09/25 00:00:50;;;;;;;1.55;1.00;;;18.60;66.20;;;;;;5014024;28;20029;-60
2023/09/25 00:03:16;;;;;;;1.30;1.20;;;18.70;66.30;;;;;;5021121;28;20087;-60
2023/09/25 00:05:41;;;;;;;1.70;1.13;;;18.70;66.00;;;;;;5017631;28;20033;-60
2023/09/25 00:08:08;;;;;;;1.17;1.08;;;18.70;65.90;;;;;;5019300;28;20030;-60
2023/09/25 00:10:35;;;;;;;2.10;1.30;;;18.60;65.00;;;;;;5022451;28;20187;-60
2023/09/25 00:13:01;;;;;;;1.08;0.90;;;18.60;65.80;;;;;;5021321;28;20025;-59
2023/09/25 00:15:27;;;;;;;2.45;1.20;;;18.60;65.90;;;;;;5019287;28;20041;-60
2023/09/25 00:17:53;;;;;;;1.00;0.90;;;18.60;65.70;;;;;;5022927;28;20502;-60
2023/09/25 00:20:21;;;;;;;2.28;1.20;;;18.60;65.90;;;;;;5023685;28;20034;-60
2023/09/25 00:22:47;;;;;;;1.20;1.10;;;18.50;65.70;;;;;;5025147;28;20017;-60
2023/09/25 00:25:12;;;;;;;2.42;1.00;;;18.50;66.10;;;;;;5006900;28;20567;-60
2023/09/25 00:27:38;;;;;;;1.30;1.20;;;18.50;66.00;;;;;;5023641;28;20061;-60
2023/09/25 00:30:08;;;;;;;1.30;0.98;;;18.60;66.20;;;;;;5019293;28;20032;-60
2023/09/25 00:32:34;;;;;;;1.85;1.10;;;18.60;66.10;;;;;;5020758;28;20113;-60
2023/09/25 00:34:59;;;;;;;1.35;1.08;;;18.60;66.10;;;;;;5019130;28;20121;-59
2023/09/25 00:37:26;;;;;;;1.30;1.00;;;18.60;66.00;;;;;;5024476;28;20045;-60
2023/09/25 00:39:52;;;;;;;2.00;1.10;;;18.60;66.00;;;;;;5020127;28;20029;-60
2023/09/25 00:42:18;;;;;;;1.50;1.10;;;18.60;66.10;;;;;;5021994;28;20086;-60
2023/09/25 00:44:43;;;;;;;2.83;0.80;;;18.60;65.90;;;;;;5018954;28;20550;-60
2023/09/25 00:47:09;;;;;;;1.70;1.23;;;18.60;66.10;;;;;;5021241;28;20030;-60
2023/09/25 00:49:35;;;;;;;1.13;0.80;;;18.60;65.80;;;;;;5004039;28;20030;-61
2023/09/25 00:52:02;;;;;;;1.73;1.00;;;18.60;65.80;;;;;;5024070;28;20103;-60
2023/09/25 00:54:30;;;;;;;1.23;0.90;;;18.60;65.90;;;;;;5022361;28;20065;-60
2023/09/25 00:56:57;;;;;;;1.55;0.90;;;18.60;66.00;;;;;;5024972;28;20033;-60
2023/09/25 00:59:23;;;;;;;1.25;1.02;;;18.60;66.00;;;;;;5024580;28;20140;-60
2023/09/25 01:01:48;;;;;;;1.45;0.90;;;18.60;65.60;;;;;;5020991;28;20229;-60
2023/09/25 01:04:14;;;;;;;1.58;1.25;;;18.60;66.10;;;;;;5023041;28;20133;-60
2023/09/25 01:06:43;;;;;;;2.35;1.00;;;18.60;65.90;;;;;;5020850;28;20065;-60
2023/09/25 01:09:09;;;;;;;1.20;1.05;;;18.60;65.90;;;;;;5006347;23;20108;-50
2023/09/25 01:11:34;;;;;;;1.48;1.00;;;18.60;66.20;;;;;;5013341;28;20057;-50
2023/09/25 01:14:00;;;;;;;1.70;1.00;;;18.60;66.00;;;;;;5013055;28;20057;-53
2023/09/25 01:16:26;;;;;;;1.25;0.93;;;18.60;66.20;;;;;;5021776;28;20076;-52
2023/09/25 01:18:52;;;;;;;1.77;1.25;;;18.60;65.90;;;;;;5020414;28;20108;-49
2023/09/25 01:21:17;;;;;;;1.25;1.00;;;18.60;66.00;;;;;;5020204;28;20124;-54
2023/09/25 01:23:43;;;;;;;1.33;1.15;;;18.60;66.00;;;;;;5018220;28;20041;-54
2023/09/25 01:26:09;;;;;;;1.25;1.08;;;18.60;65.70;;;;;;5021402;28;20025;-51
2023/09/25 01:28:34;;;;;;;1.58;1.08;;;18.50;65.80;;;;;;5001290;28;20095;-52
2023/09/25 01:31:00;;;;;;;1.63;1.10;;;18.50;65.50;;;;;;5016463;28;20487;-55
2023/09/25 01:33:26;;;;;;;2.15;1.10;;;18.50;65.80;;;;;;5019479;28;20037;-55
2023/09/25 01:35:52;;;;;;;1.10;0.98;;;18.50;65.80;;;;;;5017713;28;20032;-49
2023/09/25 01:38:18;;;;;;;1.05;0.93;;;18.50;66.00;;;;;;5016226;28;20111;-55
2023/09/25 01:40:43;;;;;;;1.60;1.00;;;18.40;65.70;;;;;;5016809;28;20038;-49
2023/09/25 01:43:09;;;;;;;1.88;1.13;;;18.40;66.00;;;;;;5000572;28;20462;-50
2023/09/25 01:45:35;;;;;;;1.48;1.20;;;18.50;66.10;;;;;;5017320;28;20121;-55
2023/09/25 01:48:00;;;;;;;1.23;1.00;;;18.50;66.10;;;;;;5025705;28;20047;-56
2023/09/25 01:50:27;;;;;;;1.33;1.02;;;18.50;65.90;;;;;;5022686;28;20041;-54
2023/09/25 01:53:00;;;;;;;0.75;0.75;;;18.50;66.00;;;;;;5004616;28;20647;-51
2023/09/25 01:55:35;;;;;;;1.10;1.00;;;18.50;65.50;;;;;;5012494;28;20067;-50
2023/09/25 01:58:02;;;;;;;1.30;1.13;;;18.40;65.90;;;;;;5031039;28;20022;-53
2023/09/25 02:00:28;;;;;;;2.28;0.98;;;18.40;65.80;;;;;;5004768;28;20486;-53
2023/09/25 02:02:53;;;;;;;1.02;0.82;;;18.40;65.70;;;;;;5023057;28;20029;-52
2023/09/25 02:05:19;;;;;;;1.17;1.00;;;18.40;65.60;;;;;;5016619;28;20847;-52
2023/09/25 02:07:45;;;;;;;1.33;1.13;;;18.40;66.10;;;;;;5018248;28;20030;-52
2023/09/25 02:10:10;;;;;;;1.00;0.90;;;18.40;65.80;;;;;;4991938;28;20034;-53
2023/09/25 02:12:36;;;;;;;1.40;1.20;;;18.40;65.70;;;;;;5018206;28;20041;-50
2023/09/25 02:15:05;;;;;;;2.20;1.45;;;18.40;65.60;;;;;;5001285;28;20112;-52
2023/09/25 02:17:31;;;;;;;2.03;1.48;;;18.40;66.00;;;;;;5022717;28;20048;-51
2023/09/25 02:22:42;;;;;;;1.05;0.95;;;18.40;66.10;;;;;;5019737;28;20351;-51
2023/09/25 02:25:11;;;;;;;1.20;1.08;;;18.50;65.70;;;;;;4992894;28;20029;-51
2023/09/25 02:27:39;;;;;;;1.58;1.10;;;18.40;65.90;;;;;;5018827;28;20038;-50
2023/09/25 02:30:07;;;;;;;1.63;1.05;;;18.40;65.80;;;;;;5001707;28;20514;-50
2023/09/25 02:32:33;;;;;;;1.10;0.93;;;18.40;65.90;;;;;;5019264;28;20037;-50
2023/09/25 02:34:59;;;;;;;1.63;0.90;;;18.40;65.90;;;;;;5017969;28;20767;-54
2023/09/25 02:37:24;;;;;;;1.10;1.00;;;18.40;65.60;;;;;;4999311;28;20034;-51
2023/09/25 02:39:50;;;;;;;1.00;0.75;;;18.40;65.60;;;;;;5016156;28;20037;-50
2023/09/25 02:42:15;;;;;;;1.10;0.90;;;18.30;65.60;;;;;;5018892;28;20022;-51
2023/09/25 02:44:41;;;;;;;1.88;1.08;;;18.30;65.40;;;;;;5015527;28;20686;-52
2023/09/25 02:47:06;;;;;;;1.35;1.10;;;18.20;65.70;;;;;;5021757;28;20032;-50
2023/09/25 02:49:32;;;;;;;1.02;0.93;;;18.20;65.80;;;;;;5018822;28;20203;-52
2023/09/25 02:51:57;;;;;;;1.67;1.10;;;18.10;65.90;;;;;;5020777;28;20056;-51
2023/09/25 02:54:23;;;;;;;1.00;1.00;;;18.20;66.20;;;;;;5003301;28;20084;-52
2023/09/25 02:56:48;;;;;;;1.10;1.00;;;18.20;66.20;;;;;;5020201;28;21093;-54
2023/09/25 02:59:14;;;;;;;1.60;0.85;;;18.30;66.20;;;;;;5007309;28;20095;-50
2023/09/25 03:01:40;;;;;;;1.38;1.00;;;18.30;65.90;;;;;;5018253;28;20111;-50
2023/09/25 03:04:05;;;;;;;1.25;1.08;;;18.30;66.00;;;;;;5006106;28;20063;-50
2023/09/25 03:06:31;;;;;;;1.10;0.90;;;18.30;65.80;;;;;;5017574;28;20053;-51
2023/09/25 03:08:56;;;;;;;1.52;1.02;;;18.30;65.80;;;;;;5015029;28;20041;-52
2023/09/25 03:11:22;;;;;;;1.55;1.10;;;18.30;66.10;;;;;;5016536;28;20029;-50
2023/09/25 03:13:49;;;;;;;1.75;1.20;;;18.20;65.90;;;;;;5017511;28;20025;-49
2023/09/25 03:16:15;;;;;;;1.23;1.00;;;18.30;65.80;;;;;;5020885;28;20026;-52
2023/09/25 03:18:41;;;;;;;1.35;0.90;;;18.30;66.10;;;;;;5018522;28;20041;-55
2023/09/25 03:21:11;;;;;;;0.98;0.80;;;18.30;66.00;;;;;;5018858;28;20021;-51
2023/09/25 03:23:37;;;;;;;1.45;0.90;;;18.30;66.00;;;;;;5018860;28;20029;-49
2023/09/25 03:26:03;;;;;;;1.15;0.80;;;18.30;66.00;;;;;;5018910;28;20087;-50
2023/09/25 03:28:28;;;;;;;1.45;1.17;;;18.30;65.90;;;;;;4997366;28;20099;-52
2023/09/25 03:30:54;;;;;;;1.38;1.10;;;18.30;66.10;;;;;;5015301;28;20037;-56
2023/09/25 03:33:21;;;;;;;1.45;1.30;;;18.30;65.80;;;;;;5012882;28;20500;-53
2023/09/25 03:35:46;;;;;;;1.20;1.10;;;18.30;66.10;;;;;;5014088;28;20026;-54
2023/09/25 03:38:12;;;;;;;2.45;0.90;;;18.30;66.10;;;;;;5014860;28;20117;-49
2023/09/25 03:40:38;;;;;;;1.08;1.00;;;18.30;65.80;;;;;;5020291;28;20033;-53
2023/09/25 03:43:03;;;;;;;0.93;0.90;;;18.30;65.80;;;;;;5016348;28;20041;-52
2023/09/25 03:45:29;;;;;;;0.82;0.82;;;18.30;65.70;;;;;;5023049;28;20042;-54
2023/09/25 03:47:54;;;;;;;1.23;1.13;;;18.30;66.30;;;;;;5020210;28;20423;-55
2023/09/25 03:50:20;;;;;;;1.55;0.95;;;18.30;66.00;;;;;;5017167;28;20436;-50
2023/09/25 03:52:46;;;;;;;1.25;0.93;;;18.30;66.10;;;;;;5021887;28;20060;-49
2023/09/25 03:55:11;;;;;;;1.08;0.82;;;18.30;65.90;;;;;;5017340;28;20034;-50
2023/09/25 03:57:37;;;;;;;2.25;1.02;;;18.30;65.80;;;;;;5018591;28;21254;-55
2023/09/25 04:00:06;;;;;;;1.20;1.10;;;18.30;65.90;;;;;;5017263;28;20025;-56
2023/09/25 04:02:31;;;;;;;1.17;0.95;;;18.30;65.90;;;;;;5016152;28;20091;-57
2023/09/25 04:04:57;;;;;;;1.85;1.23;;;18.30;65.90;;;;;;5014489;28;20132;-54
2023/09/25 04:07:22;;;;;;;3.17;1.23;;;18.30;65.90;;;;;;5014850;28;20034;-52
2023/09/25 04:09:48;;;;;;;1.23;1.05;;;18.30;65.70;;;;;;5020187;28;20168;-49
2023/09/25 04:12:14;;;;;;;1.17;1.08;;;18.20;65.70;;;;;;5015057;28;20037;-52
2023/09/25 04:14:41;;;;;;;1.00;0.93;;;18.20;65.60;;;;;;5018389;28;20399;-53
2023/09/25 04:17:08;;;;;;;1.38;1.13;;;18.20;65.80;;;;;;5015629;28;20060;-54
2023/09/25 04:19:33;;;;;;;1.60;0.93;;;18.20;65.90;;;;;;5017474;28;20129;-55
2023/09/25 04:21:59;;;;;;;1.40;1.27;;;18.20;65.80;;;;;;5005561;28;20175;-53
2023/09/25 04:24:25;;;;;;;1.40;1.10;;;18.20;65.70;;;;;;5014565;28;20611;-51
2023/09/25 04:26:51;;;;;;;3.58;1.00;;;18.20;65.70;;;;;;5016823;28;20037;-56
2023/09/25 04:29:17;;;;;;;3.22;1.00;;;18.20;65.90;;;;;;5013802;28;20026;-55
2023/09/25 04:31:46;;;;;;;1.20;1.10;;;18.20;65.70;;;;;;5013675;28;20116;-56
2023/09/25 04:34:12;;;;;;;1.23;1.10;;;18.20;65.70;;;;;;5011372;28;20026;-56
2023/09/25 04:36:38;;;;;;;1.15;1.00;;;18.10;65.80;;;;;;5014958;28;20159;-54
2023/09/25 04:39:04;;;;;;;1.02;0.90;;;18.20;65.90;;;;;;5013165;28;20155;-55
2023/09/25 04:41:30;;;;;;;3.15;1.10;;;18.20;65.90;;;;;;5014147;28;20121;-56
2023/09/25 04:43:55;;;;;;;1.50;1.00;;;18.20;66.00;;;;;;5022143;28;20037;-57
2023/09/25 04:46:21;;;;;;;0.93;0.80;;;18.20;65.80;;;;;;5022944;28;20053;-51
2023/09/25 04:48:47;;;;;;;2.33;1.20;;;18.20;65.80;;;;;;5018298;28;20025;-49
2023/09/25 04:51:16;;;;;;;1.65;1.30;;;18.20;66.10;;;;;;5021471;28;20032;-50
2023/09/25 04:53:42;;;;;;;2.03;1.25;;;18.20;65.80;;;;;;5016702;28;20108;-51
2023/09/25 04:56:08;;;;;;;1.60;1.40;;;18.20;65.60;;;;;;5002528;28;20036;-55
2023/09/25 04:58:34;;;;;;;1.75;1.25;;;18.10;65.70;;;;;;5019141;28;20029;-56
2023/09/25 05:00:59;;;;;;;1.88;1.23;;;18.10;65.80;;;;;;5018485;28;20384;-51
2023/09/25 05:03:25;;;;;;;1.73;1.10;;;18.10;65.80;;;;;;5017242;28;20041;-54
2023/09/25 05:05:51;;;;;;;1.05;0.90;;;18.10;65.70;;;;;;5016828;28;20459;-54
2023/09/25 05:08:17;;;;;;;1.55;1.13;;;18.10;65.90;;;;;;5016706;28;20040;-55
2023/09/25 05:10:45;;;;;;;1.35;1.20;;;18.10;65.90;;;;;;5013509;28;20045;-55
2023/09/25 05:13:10;;;;;;;1.27;1.10;;;18.20;66.10;;;;;;5017421;28;20025;-54
2023/09/25 05:15:36;;;;;;;1.88;1.20;;;18.20;66.00;;;;;;5019893;28;20024;-52
2023/09/25 05:18:02;;;;;;;2.63;1.33;;;18.20;65.90;;;;;;5021289;28;20100;-50
2023/09/25 05:20:28;;;;;;;1.73;1.13;;;18.10;65.70;;;;;;5020642;28;20553;-54
2023/09/25 05:22:57;;;;;;;2.33;1.48;;;18.10;65.80;;;;;;5024814;28;20045;-50
2023/09/25 05:25:23;;;;;;;6.97;1.65;;;18.10;65.60;;;;;;5003407;28;20029;-55
2023/09/25 05:27:50;;;;;;;2.33;1.10;;;18.00;65.50;;;;;;5020399;28;20068;-56
2023/09/25 05:30:17;;;;;;;5.50;1.58;;;18.10;66.00;;;;;;5016211;28;20025;-49
2023/09/25 05:32:52;;;;;;;2.47;1.02;;;18.10;65.60;;;;;;5016152;28;20142;-54
2023/09/25 05:35:18;;;;;;;2.55;1.80;;;18.20;65.60;;;;;;5018007;28;20033;-56
2023/09/25 05:37:45;;;;;;;5.32;1.80;;;18.00;65.20;;;;;;5013992;28;20045;-50
2023/09/25 05:40:12;;;;;;;1.60;1.40;;;17.90;64.90;;;;;;5018902;28;20056;-56
2023/09/25 05:42:45;;;;;;;2.38;1.52;;;17.80;65.10;;;;;;5027071;28;20033;-51
2023/09/25 05:45:15;;;;;;;2.45;1.52;;;17.90;65.80;;;;;;5024754;28;20048;-52
2023/09/25 05:47:40;;;;;;;5.65;1.75;;;18.10;65.30;;;;;;5020903;28;20026;-53
2023/09/25 05:50:07;;;;;;;4.80;2.15;;;18.10;65.10;;;;;;5020596;28;20036;-49
2023/09/25 05:52:37;;;;;;;3.15;1.45;;;18.20;65.20;;;;;;5021851;28;20030;-50
2023/09/25 05:55:06;;;;;;;3.92;1.88;;;18.20;65.00;;;;;;5016927;28;20116;-50
2023/09/25 05:57:32;;;;;;;4.63;2.03;;;18.20;64.80;;;;;;5015670;28;20116;-55
2023/09/25 05:59:59;;;;;;;6.28;2.13;;;18.20;64.60;;;;;;5015367;28;20037;-53
2023/09/25 06:02:27;;;;;;;7.25;2.20;;;18.30;64.40;;;;;;5015573;28;20125;-52
2023/09/25 06:04:53;;;;;;;5.60;2.50;;;18.30;64.20;;;;;;5016468;28;20519;-51
2023/09/25 06:07:20;;;;;;;4.07;1.98;;;18.30;64.00;;;;;;5009578;28;20057;-55
2023/09/25 06:09:46;;;;;;;4.78;2.40;;;18.30;64.00;;;;;;5018340;28;20037;-49
2023/09/25 06:12:13;;;;;;;5.63;2.28;;;18.30;64.00;;;;;;5018169;28;20107;-55
2023/09/25 06:14:39;;;;;;;4.07;2.10;;;18.30;63.90;;;;;;5015307;28;20080;-50
2023/09/25 06:17:04;;;;;;;4.30;3.13;;;18.30;63.80;;;;;;5021183;28;20037;-51
2023/09/25 06:19:30;;;;;;;7.00;3.10;;;18.30;64.00;;;;;;5019851;28;20088;-54
2023/09/25 06:21:55;;;;;;;9.15;2.80;;;18.30;63.80;;;;;;5016601;28;20068;-49
2023/09/25 06:24:21;;;;;;;4.10;2.85;;;18.30;63.90;;;;;;5016279;28;20034;-52
2023/09/25 06:26:48;;;;;;;10.57;4.28;;;18.30;63.80;;;;;;5017454;28;20036;-49
2023/09/25 06:29:15;;;;;;;18.15;7.57;;;18.30;63.70;;;;;;5014390;28;20085;-52
2023/09/25 06:31:41;;;;;;;18.40;6.68;;;18.30;64.10;;;;;;5014881;28;20037;-56
2023/09/25 06:34:07;;;;;;;12.00;5.82;;;18.40;64.50;;;;;;5014857;28;20687;-50
2023/09/25 06:36:34;;;;;;;10.13;4.75;;;18.30;64.50;;;;;;5018183;28;20072;-50
2023/09/25 06:39:00;;;;;;;13.38;5.10;;;18.30;63.70;;;;;;5023797;28;20033;-53
2023/09/25 06:41:26;;;;;;;9.15;4.00;;;18.20;64.20;;;;;;4937252;28;20145;-50
2023/09/25 06:43:51;;;;;;;10.88;3.75;;;18.10;64.10;;;;;;5020247;28;20037;-49
2023/09/25 06:46:17;;;;;;;8.65;3.50;;;18.10;64.30;;;;;;5017945;28;20033;-51
2023/09/25 06:48:43;;;;;;;9.43;3.50;;;18.10;63.80;;;;;;5018588;28;20117;-57
2023/09/25 06:51:10;;;;;;;8.55;3.08;;;18.20;64.40;;;;;;5016282;28;20039;-54
2023/09/25 06:53:35;;;;;;;7.75;2.65;;;18.30;64.80;;;;;;4995708;28;20041;-54
2023/09/25 06:56:01;;;;;;;5.30;3.08;;;18.30;65.40;;;;;;5015704;28;20034;-57
2023/09/25 06:58:26;;;;;;;6.57;3.10;;;18.40;65.50;;;;;;5015632;28;20518;-52
2023/09/25 07:00:52;;;;;;;8.88;3.45;;;18.40;64.70;;;;;;5014159;28;20029;-55
2023/09/25 07:03:17;;;;;;;5.13;2.70;;;18.40;64.50;;;;;;5019933;28;20459;-57
2023/09/25 07:05:44;;;;;;;5.60;2.00;;;18.40;64.20;;;;;;5015037;28;20044;-54
2023/09/25 07:08:11;;;;;;;7.68;2.47;;;18.50;64.60;;;;;;5014620;28;20056;-54
2023/09/25 07:10:37;;;;;;;8.48;2.88;;;18.50;63.70;;;;;;5012700;28;20124;-55
2023/09/25 07:13:03;;;;;;;5.00;2.15;;;18.50;64.20;;;;;;5022047;28;20033;-53
2023/09/25 07:15:30;;;;;;;7.38;2.90;;;18.50;64.00;;;;;;5002550;28;20107;-53
2023/09/25 07:17:55;;;;;;;4.70;2.20;;;18.50;64.40;;;;;;5012086;28;20060;-53
2023/09/25 07:20:21;;;;;;;3.70;2.45;;;18.50;63.60;;;;;;5018699;28;20068;-52
2023/09/25 07:22:47;;;;;;;3.85;2.08;;;18.50;63.50;;;;;;5016672;28;20146;-49
2023/09/25 07:25:14;;;;;;;4.43;2.30;;;18.50;63.70;;;;;;5017742;28;20041;-50
2023/09/25 07:27:40;;;;;;;4.53;2.28;;;18.40;63.20;;;;;;5013192;28;20041;-56
2023/09/25 07:30:08;;;;;;;4.25;2.55;;;18.40;62.90;;;;;;4995278;28;20026;-55
2023/09/25 07:32:34;;;;;;;5.40;2.70;;;18.40;63.10;;;;;;5012025;28;20025;-56
2023/09/25 07:35:04;;;;;;;6.32;2.42;;;18.30;63.10;;;;;;5012964;28;20742;-56
2023/09/25 07:37:29;;;;;;;4.63;2.65;;;18.30;63.40;;;;;;5019625;28;20045;-54
2023/09/25 07:39:55;;;;;;;6.32;2.25;;;18.30;63.70;;;;;;5019328;28;20037;-52
2023/09/25 07:42:21;;;;;;;7.00;2.63;;;18.30;64.10;;;;;;5016892;28;20061;-53
2023/09/25 07:44:48;;;;;;;3.47;1.90;;;18.20;62.90;;;;;;5017997;28;20048;-53
2023/09/25 07:47:14;;;;;;;4.75;2.95;;;18.20;64.00;;;;;;5018526;28;20040;-49
2023/09/25 07:49:45;;;;;;;4.03;2.70;;;18.20;63.70;;;;;;5016817;28;20026;-51
2023/09/25 07:52:19;;;;;;;2.70;2.00;;;18.20;63.70;;;;;;5015673;28;20513;-52
2023/09/25 07:54:48;;;;;;;2.83;2.35;;;18.20;63.90;;;;;;5013457;28;20135;-52
2023/09/25 07:57:15;;;;;;;5.10;2.05;;;18.20;63.90;;;;;;5013710;28;20040;-51
2023/09/25 07:59:42;;;;;;;4.13;2.15;;;18.20;63.60;;;;;;5013341;28;20037;-57
2023/09/25 08:02:09;;;;;;;4.10;3.30;;;18.20;64.40;;;;;;5015384;28;20051;-55
2023/09/25 08:04:35;;;;;;;4.95;2.70;;;18.10;63.20;;;;;;5019453;28;20037;-55
2023/09/25 08:07:02;;;;;;;4.75;3.03;;;18.10;64.00;;;;;;5023520;28;20120;-55
2023/09/25 08:09:28;;;;;;;3.58;2.67;;;18.10;63.50;;;;;;5018184;28;20107;-55
2023/09/25 08:11:54;;;;;;;2.95;2.35;;;18.00;63.80;;;;;;5022095;28;20037;-50
2023/09/25 08:14:19;;;;;;;2.90;2.20;;;18.10;64.50;;;;;;5030177;23;20125;-54
2023/09/25 08:16:46;;;;;;;2.80;2.00;;;18.10;64.50;;;;;;5012383;28;20580;-52
2023/09/25 08:19:11;;;;;;;4.32;2.58;;;18.10;64.80;;;;;;5012031;28;20117;-50
2023/09/25 08:21:37;;;;;;;3.40;2.55;;;18.10;64.20;;;;;;5000194;28;20104;-51
2023/09/25 08:24:02;;;;;;;2.72;2.53;;;18.10;64.40;;;;;;5010920;28;20424;-55
2023/09/25 08:26:29;;;;;;;2.58;2.38;;;18.10;64.10;;;;;;5009863;28;20044;-55
2023/09/25 08:28:57;;;;;;;4.53;2.60;;;18.00;64.30;;;;;;5016872;28;20056;-50
2023/09/25 08:31:23;;;;;;;4.18;2.60;;;18.10;64.80;;;;;;5015425;28;20056;-53
2023/09/25 08:33:49;;;;;;;3.95;2.53;;;18.00;64.40;;;;;;5017672;28;20038;-54
2023/09/25 08:36:15;;;;;;;5.40;2.72;;;18.00;64.20;;;;;;5027116;28;20107;-51
2023/09/25 08:38:40;;;;;;;5.50;2.67;;;18.00;64.60;;;;;;5004129;28;20029;-53
2023/09/25 08:41:06;;;;;;;4.72;2.28;;;18.00;64.50;;;;;;5017857;28;20026;-50
2023/09/25 08:43:32;;;;;;;2.92;2.50;;;18.10;64.50;;;;;;5016432;28;20030;-51
2023/09/25 08:45:58;;;;;;;5.13;3.33;;;18.00;64.30;;;;;;5013024;28;20021;-53
2023/09/25 08:48:24;;;;;;;3.35;2.10;;;18.00;64.10;;;;;;5016010;28;20030;-55
2023/09/25 08:50:50;;;;;;;4.47;2.03;;;18.00;64.90;;;;;;5017784;28;20032;-53
2023/09/25 08:53:16;;;;;;;2.95;1.85;;;18.10;65.20;;;;;;5017824;28;20022;-55
2023/09/25 08:55:43;;;;;;;3.22;2.20;;;18.10;64.90;;;;;;4997008;28;20110;-52
2023/09/25 08:58:09;;;;;;;3.65;2.53;;;18.10;64.60;;;;;;5017366;28;20021;-50
2023/09/25 09:00:35;;;;;;;2.40;2.08;;;18.10;64.90;;;;;;5013425;28;20100;-52
2023/09/25 09:03:01;;;;;;;5.45;2.30;;;18.20;65.10;;;;;;5078423;23;20088;-69
2023/09/25 09:05:26;;;;;;;3.33;2.35;;;18.20;64.40;;;;;;5018029;28;20041;-66
2023/09/25 09:07:56;;;;;;;4.35;2.45;;;18.20;64.60;;;;;;5019505;28;20034;-66
2023/09/25 09:10:21;;;;;;;4.32;2.83;;;18.20;64.70;;;;;;5020152;28;20034;-66
2023/09/25 09:12:55;;;;;;;3.78;2.65;;;18.10;64.40;;;;;;5018075;28;20041;-66
2023/09/25 09:15:26;;;;;;;4.28;3.00;;;18.10;64.50;;;;;;5019386;28;20079;-66
2023/09/25 09:17:52;;;;;;;2.80;2.40;;;18.10;64.80;;;;;;5018304;28;20400;-66
2023/09/25 09:20:17;;;;;;;2.85;2.20;;;18.10;64.50;;;;;;5017841;28;20026;-66
2023/09/25 09:22:51;;;;;;;2.78;2.17;;;18.10;64.90;;;;;;5017749;28;20531;-66
2023/09/25 09:25:20;;;;;;;3.22;2.92;;;18.10;65.00;;;;;;5018322;28;20406;-66
2023/09/25 09:27:46;;;;;;;2.45;2.10;;;18.20;64.30;;;;;;5015031;28;20497;-66
2023/09/25 09:30:24;;;;;;;2.92;2.50;;;18.20;64.60;;;;;;5017472;28;20034;-66
2023/09/25 09:32:50;;;;;;;3.00;2.35;;;18.10;64.80;;;;;;5017143;28;20508;-67
2023/09/25 09:35:25;;;;;;;2.38;2.00;;;18.10;64.80;;;;;;5018697;28;20449;-66
2023/09/25 09:37:58;;;;;;;4.90;2.80;;;18.20;64.80;;;;;;5022500;28;20100;-66
2023/09/25 09:40:25;;;;;;;2.90;1.88;;;18.10;64.70;;;;;;5002640;28;20532;-66
2023/09/25 09:42:52;;;;;;;2.55;2.13;;;18.10;65.10;;;;;;5018907;28;20041;-65
2023/09/25 09:45:18;;;;;;;3.15;2.65;;;18.20;65.10;;;;;;5016647;28;20082;-67
2023/09/25 09:47:45;;;;;;;4.53;2.63;;;18.10;64.10;;;;;;5000223;28;20034;-66
2023/09/25 09:50:12;;;;;;;2.33;2.13;;;18.10;64.60;;;;;;5018667;28;20029;-68
2023/09/25 09:52:39;;;;;;;6.30;3.00;;;18.10;64.20;;;;;;5019006;28;20050;-66
2023/09/25 09:55:07;;;;;;;5.97;2.10;;;18.10;64.50;;;;;;5017632;28;20025;-67
2023/09/25 09:57:33;;;;;;;4.00;2.65;;;18.10;64.80;;;;;;5018678;28;20033;-66
2023/09/25 09:59:59;;;;;;;6.03;2.88;;;18.20;64.80;;;;;;5001256;28;20037;-67
2023/09/25 10:02:28;;;;;;;5.20;3.08;;;18.10;64.30;;;;;;5015788;28;20045;-66
2023/09/25 10:04:55;;;;;;;3.50;2.03;;;18.00;63.80;;;;;;4999905;28;20034;-68
2023/09/25 10:07:21;;;;;;;3.25;2.00;;;18.00;64.50;;;;;;5020486;28;20041;-67
2023/09/25 10:10:04;;;;;;;3.05;2.30;;;18.10;64.70;;;;;;5020556;28;20113;-66
2023/09/25 10:12:49;;;;;;;2.90;2.40;;;18.10;64.60;;;;;;5017764;28;20420;-66
2023/09/25 10:15:22;;;;;;;3.28;2.38;;;18.20;64.20;;;;;;4998808;28;20045;-67
2023/09/25 10:17:48;;;;;;;7.35;2.28;;;18.10;63.80;;;;;;5018376;28;20063;-66
2023/09/25 10:20:34;;;;;;;2.15;1.88;;;18.20;64.70;;;;;;5001215;28;20038;-66
2023/09/25 10:23:06;;;;;;;2.72;2.08;;;18.10;64.60;;;;;;5016401;28;20044;-67
2023/09/25 10:25:52;;;;;;;2.00;1.58;;;18.20;64.90;;;;;;4990528;28;20482;-67
2023/09/25 10:28:30;;;;;;;4.70;3.10;;;18.20;65.10;;;;;;5019512;28;20040;-67
2023/09/25 10:31:04;;;;;;;2.88;1.90;;;18.20;64.50;;;;;;5016381;28;20101;-68
2023/09/25 10:33:33;;;;;;;2.72;1.83;;;18.20;64.40;;;;;;5018056;28;20042;-67
2023/09/25 10:36:04;;;;;;;4.30;2.65;;;18.20;64.80;;;;;;5017092;28;20346;-65
2023/09/25 10:38:33;;;;;;;4.00;2.17;;;18.30;64.60;;;;;;4995915;28;20574;-67
2023/09/25 10:41:06;;;;;;;5.25;2.50;;;18.20;64.40;;;;;;5002017;28;20056;-67
2023/09/25 10:43:33;;;;;;;3.40;2.10;;;18.20;63.90;;;;;;5000385;28;20041;-67
2023/09/25 10:45:59;;;;;;;5.28;2.13;;;18.20;64.40;;;;;;5017918;28;20069;-67
2023/09/25 10:48:27;;;;;;;2.13;1.83;;;18.20;64.80;;;;;;5019607;28;20038;-66
2023/09/25 10:50:53;;;;;;;3.15;2.35;;;18.30;64.40;;;;;;5017337;28;22424;-67
2023/09/25 10:53:18;;;;;;;2.60;2.15;;;18.30;64.10;;;;;;5017017;28;20213;-66
2023/09/25 10:55:44;;;;;;;3.92;2.42;;;18.30;64.00;;;;;;5013487;28;20048;-67
2023/09/25 10:58:12;;;;;;;3.33;2.15;;;18.30;63.90;;;;;;5014969;28;20026;-67
2023/09/25 11:00:40;;;;;;;3.28;2.17;;;18.40;63.90;;;;;;5016457;28;20068;-66
2023/09/25 11:03:06;;;;;;;3.10;2.40;;;18.40;64.10;;;;;;5003618;28;20107;-67
2023/09/25 11:05:34;;;;;;;2.53;1.55;;;18.40;64.00;;;;;;5000951;28;20096;-66
2023/09/25 11:08:00;;;;;;;4.25;1.95;;;18.40;63.90;;;;;;5019696;28;20120;-67
2023/09/25 11:10:30;;;;;;;4.20;2.08;;;18.40;63.80;;;;;;4999491;28;20180;-67
2023/09/25 11:12:57;;;;;;;4.03;2.03;;;18.50;64.10;;;;;;5016593;28;20026;-67
2023/09/25 11:15:24;;;;;;;2.53;1.50;;;18.50;64.30;;;;;;5017274;28;20034;-67
2023/09/25 11:17:50;;;;;;;2.75;1.63;;;18.50;64.30;;;;;;5017980;28;20036;-68
2023/09/25 11:20:18;;;;;;;1.70;1.60;;;18.50;64.10;;;;;;4998835;28;20029;-68
2023/09/25 11:22:47;;;;;;;2.65;1.85;;;18.50;64.30;;;;;;5000054;28;20453;-65
2023/09/25 11:25:17;;;;;;;3.83;2.03;;;18.50;64.10;;;;;;5000375;28;20041;-67
2023/09/25 11:27:58;;;;;;;2.10;1.88;;;18.60;64.10;;;;;;5021905;28;20180;-67
2023/09/25 11:30:30;;;;;;;3.67;1.58;;;18.60;64.00;;;;;;5018485;28;20132;-67
2023/09/25 11:32:55;;;;;;;3.42;1.80;;;18.50;63.80;;;;;;4999290;28;20095;-67
2023/09/25 11:35:22;;;;;;;2.72;1.50;;;18.60;63.40;;;;;;5022687;28;20025;-68
2023/09/25 11:38:01;;;;;;;2.88;1.70;;;18.60;63.50;;;;;;5016970;28;20026;-66
2023/09/25 11:40:29;;;;;;;4.07;1.70;;;18.60;63.80;;;;;;5015361;28;20049;-65
2023/09/25 11:42:56;;;;;;;3.00;1.60;;;18.70;63.40;;;;;;5015825;28;20037;-64
2023/09/25 11:45:22;;;;;;;3.05;1.63;;;18.70;63.60;;;;;;4999353;28;20404;-65
2023/09/25 11:47:48;;;;;;;2.53;1.50;;;18.70;63.80;;;;;;5017060;28;20030;-65
2023/09/25 11:50:16;;;;;;;4.80;1.65;;;18.70;64.30;;;;;;5016327;28;20578;-64
2023/09/25 11:52:43;;;;;;;3.60;1.98;;;18.70;63.80;;;;;;5019090;28;20281;-65
2023/09/25 11:55:12;;;;;;;1.42;1.30;;;18.70;64.00;;;;;;5014493;28;20029;-65
2023/09/25 11:57:39;;;;;;;1.80;1.42;;;18.70;64.10;;;;;;5012747;28;20065;-65
2023/09/25 12:00:05;;;;;;;1.30;1.20;;;18.70;63.60;;;;;;5011648;28;21143;-65
2023/09/25 12:02:32;;;;;;;2.95;1.63;;;18.70;63.80;;;;;;5014390;28;20131;-65
2023/09/25 12:04:58;;;;;;;3.15;1.33;;;18.70;64.10;;;;;;5020988;28;20038;-66
2023/09/25 12:07:26;;;;;;;1.67;1.25;;;18.70;64.20;;;;;;5005656;28;20114;-65
2023/09/25 12:09:52;;;;;;;3.25;1.13;;;18.70;64.30;;;;;;5020544;28;20030;-65
2023/09/25 12:12:18;;;;;;;2.55;1.08;;;18.70;63.90;;;;;;5003170;28;20088;-65
2023/09/25 12:14:43;;;;;;;2.03;1.75;;;18.70;63.90;;;;;;5021115;28;20046;-65
2023/09/25 12:17:10;;;;;;;1.65;1.40;;;18.70;63.70;;;;;;5018275;28;20610;-65
2023/09/25 12:19:36;;;;;;;3.80;1.70;;;18.70;63.50;;;;;;5024148;28;20073;-65
2023/09/25 12:22:02;;;;;;;2.15;1.70;;;18.70;63.10;;;;;;5019980;28;20504;-65
2023/09/25 12:24:28;;;;;;;2.65;1.77;;;18.60;62.60;;;;;;5019546;28;20038;-65
2023/09/25 12:26:53;;;;;;;2.03;1.40;;;18.60;62.70;;;;;;5014341;28;20100;-65
2023/09/25 12:29:19;;;;;;;1.95;1.45;;;18.70;63.30;;;;;;5001768;28;20466;-66
2023/09/25 12:31:45;;;;;;;3.78;2.03;;;18.70;62.30;;;;;;5020213;28;20040;-66
2023/09/25 12:34:10;;;;;;;1.50;1.30;;;18.70;63.20;;;;;;5003250;28;20032;-66
2023/09/25 12:36:36;;;;;;;1.90;1.70;;;18.70;63.30;;;;;;5024447;28;20050;-65
2023/09/25 12:39:01;;;;;;;1.85;1.40;;;18.70;64.60;;;;;;5019044;28;20871;-65
2023/09/25 12:41:27;;;;;;;1.63;1.30;;;18.70;63.60;;;;;;5021008;28;20045;-65
2023/09/25 12:43:53;;;;;;;3.28;1.30;;;18.70;63.70;;;;;;5018179;28;20620;-65
2023/09/25 12:46:18;;;;;;;3.20;1.63;;;18.60;62.70;;;;;;5012067;28;20041;-65